createdAt,value
2018-02-04T00:01:39.607Z,96175.45
2018-02-04T00:04:08.053Z,96176.96
2018-02-04T00:06:36.329Z,96175.63
2018-02-04T00:09:04.562Z,96174.72
2018-02-04T00:11:32.887Z,96175.11
2018-02-04T00:14:01.162Z,96173.47
2018-02-04T00:16:29.491Z,96173.91
2018-02-04T00:18:57.748Z,96170.11
2018-02-04T00:21:26.049Z,96176.31
2018-02-04T00:23:54.322Z,96174.59
2018-02-04T00:26:25.678Z,96174.59
2018-02-04T00:28:53.949Z,96178.69
2018-02-04T00:31:22.245Z,96176.96
2018-02-04T00:33:57.067Z,96186.91
2018-02-04T00:36:28.641Z,96181.84
2018-02-04T00:38:56.916Z,96183.94
2018-02-04T00:41:25.246Z,96188.81
2018-02-04T00:43:57.223Z,96189.88
2018-02-04T00:46:25.513Z,96188.16
2018-02-04T00:48:53.780Z,96185.66
2018-02-04T00:51:22.049Z,96193.55
2018-02-04T00:53:50.309Z,96188.50
2018-02-04T00:56:24.544Z,96199.78
2018-02-04T00:58:52.809Z,96198.49
2018-02-04T01:01:22.832Z,96200.98
2018-02-04T01:03:51.135Z,96200.91
2018-02-04T01:06:19.405Z,96212.53
2018-02-04T01:08:47.808Z,96210.33
2018-02-04T01:14:09.177Z,96210.54
2018-02-04T01:16:37.435Z,96209.33
2018-02-04T01:19:05.812Z,96223.50
2018-02-04T01:21:34.833Z,96221.00
2018-02-04T01:24:03.123Z,96211.70
2018-02-04T01:26:31.449Z,96212.08
2018-02-04T01:28:59.746Z,96209.15
2018-02-04T01:31:28.045Z,96216.25
2018-02-04T01:33:56.308Z,96221.16
2018-02-04T01:36:24.576Z,96225.24
2018-02-04T01:38:52.836Z,96218.09
2018-02-04T01:41:21.115Z,96223.47
2018-02-04T01:43:49.363Z,96218.91
2018-02-04T01:46:17.659Z,96214.30
2018-02-04T01:48:45.937Z,96220.94
2018-02-04T01:51:14.208Z,96221.70
2018-02-04T01:53:42.473Z,96233.36
2018-02-04T01:56:11.069Z,96227.12
2018-02-04T01:58:45.322Z,96227.08
2018-02-04T02:01:23.395Z,96220.41
2018-02-04T02:03:51.670Z,96230.34
2018-02-04T02:06:19.951Z,96234.86
2018-02-04T02:08:48.228Z,96239.42
2018-02-04T02:11:17.927Z,96242.73
2018-02-04T02:13:46.239Z,96240.66
2018-02-04T02:16:30.884Z,96238.56
2018-02-04T02:19:05.083Z,96242.73
2018-02-04T02:21:33.341Z,96238.94
2018-02-04T02:24:01.651Z,96250.09
2018-02-04T02:26:29.937Z,96243.79
2018-02-04T02:28:58.201Z,96242.98
2018-02-04T02:31:32.561Z,96237.89
2018-02-04T02:34:00.846Z,96248.07
2018-02-04T02:36:29.614Z,96245.70
2018-02-04T02:38:58.219Z,96244.84
2018-02-04T02:41:26.479Z,96253.63
2018-02-04T02:43:54.922Z,96252.86
2018-02-04T02:46:23.176Z,96257.91
2018-02-04T02:48:51.449Z,96260.05
2018-02-04T02:51:19.737Z,96264.23
2018-02-04T02:53:47.994Z,96268.38
2018-02-04T02:56:16.289Z,96266.69
2018-02-04T02:58:44.533Z,96275.13
2018-02-04T03:01:12.814Z,96280.17
2018-02-04T03:03:48.162Z,96278.11
2018-02-04T03:06:16.756Z,96285.27
2018-02-04T03:08:45.052Z,96279.94
2018-02-04T03:11:13.316Z,96282.91
2018-02-04T03:13:48.347Z,96281.23
2018-02-04T03:16:16.763Z,96288.72
2018-02-04T03:18:45.043Z,96290.02
2018-02-04T03:21:13.308Z,96295.44
2018-02-04T03:23:41.593Z,96297.07
2018-02-04T03:26:09.835Z,96302.50
2018-02-04T03:28:38.126Z,96305.47
2018-02-04T03:31:06.460Z,96306.68
2018-02-04T03:33:34.739Z,96313.48
2018-02-04T03:36:03.008Z,96307.64
2018-02-04T03:38:31.302Z,96313.14
2018-02-04T03:40:59.557Z,96314.78
2018-02-04T03:43:28.586Z,96312.77
2018-02-04T03:45:56.840Z,96317.33
2018-02-04T03:48:25.098Z,96322.33
2018-02-04T03:50:53.374Z,96324.82
2018-02-04T03:53:21.634Z,96328.61
2018-02-04T03:55:49.927Z,96323.62
2018-02-04T03:58:18.188Z,96326.51
2018-02-04T04:00:46.456Z,96333.60
2018-02-04T04:03:21.418Z,96336.16
2018-02-04T04:05:51.675Z,96333.22
2018-02-04T04:08:28.469Z,96338.70
2018-02-04T04:10:56.752Z,96339.12
2018-02-04T04:13:25.149Z,96346.20
2018-02-04T04:15:53.420Z,96344.13
2018-02-04T04:18:21.713Z,96349.95
2018-02-04T04:20:49.991Z,96352.44
2018-02-04T04:23:18.257Z,96351.66
2018-02-04T04:25:46.568Z,96353.34
2018-02-04T04:28:14.828Z,96359.55
2018-02-04T04:30:43.125Z,96363.30
2018-02-04T04:33:21.303Z,96360.31
2018-02-04T04:35:49.578Z,96361.47
2018-02-04T04:38:17.867Z,96365.66
2018-02-04T04:40:46.127Z,96357.39
2018-02-04T04:43:14.506Z,96369.53
2018-02-04T04:45:45.175Z,96366.61
2018-02-04T04:48:13.506Z,96366.19
2018-02-04T04:50:41.784Z,96365.80
2018-02-04T04:53:10.648Z,96368.72
2018-02-04T04:55:38.906Z,96371.26
2018-02-04T04:58:07.195Z,96371.27
2018-02-04T05:00:35.458Z,96368.77
2018-02-04T05:03:03.738Z,96372.56
2018-02-04T05:05:32.020Z,96370.06
2018-02-04T05:08:00.262Z,96369.62
2018-02-04T05:10:28.536Z,96370.41
2018-02-04T05:12:56.808Z,96372.13
2018-02-04T05:15:25.064Z,96373.39
2018-02-04T05:17:53.332Z,96376.73
2018-02-04T05:20:21.675Z,96381.65
2018-02-04T05:22:49.936Z,96386.26
2018-02-04T05:25:18.236Z,96386.26
2018-02-04T05:27:46.500Z,96389.14
2018-02-04T05:30:14.770Z,96393.31
2018-02-04T05:32:43.058Z,96396.16
2018-02-04T05:35:11.307Z,96399.12
2018-02-04T05:37:39.668Z,96403.73
2018-02-04T05:40:07.923Z,96405.86
2018-02-04T05:42:36.446Z,96411.28
2018-02-04T05:45:04.740Z,96411.28
2018-02-04T05:47:33.045Z,96412.14
2018-02-04T05:50:01.304Z,96422.14
2018-02-04T05:52:35.705Z,96421.66
2018-02-04T05:55:03.970Z,96434.09
2018-02-04T05:57:32.231Z,96434.05
2018-02-04T06:00:00.519Z,96439.09
2018-02-04T06:02:28.769Z,96435.72
2018-02-04T06:04:57.082Z,96444.42
2018-02-04T06:07:31.747Z,96446.48
2018-02-04T06:09:59.993Z,96449.80
2018-02-04T06:12:28.255Z,96453.98
2018-02-04T06:14:56.547Z,96467.28
2018-02-04T06:17:24.832Z,96458.48
2018-02-04T06:19:53.173Z,96462.63
2018-02-04T06:22:21.418Z,96463.48
2018-02-04T06:24:49.653Z,96471.79
2018-02-04T06:27:17.979Z,96475.11
2018-02-04T06:29:46.221Z,96477.98
2018-02-04T06:32:14.516Z,96480.88
2018-02-04T06:34:42.837Z,96484.09
2018-02-04T06:37:11.197Z,96491.97
2018-02-04T06:39:39.461Z,96494.89
2018-02-04T06:42:07.747Z,96504.45
2018-02-04T06:44:36.001Z,96506.78
2018-02-04T06:47:14.177Z,96518.73
2018-02-04T06:49:42.459Z,96522.38
2018-02-04T06:52:12.191Z,96527.27
2018-02-04T06:54:40.451Z,96531.02
2018-02-04T06:57:08.709Z,96532.59
2018-02-04T06:59:36.994Z,96541.37
2018-02-04T07:02:06.335Z,96550.88
2018-02-04T07:04:34.625Z,96551.75
2018-02-04T07:07:05.795Z,96555.22
2018-02-04T07:09:34.114Z,96554.41
2018-02-04T07:12:02.403Z,96558.73
2018-02-04T07:14:30.730Z,96560.48
2018-02-04T07:16:58.980Z,96559.72
2018-02-04T07:19:35.210Z,96557.65
2018-02-04T07:22:13.105Z,96556.36
2018-02-04T07:24:41.386Z,96565.63
2018-02-04T07:27:12.610Z,96564.48
2018-02-04T07:29:40.909Z,96571.48
2018-02-04T07:35:09.115Z,96579.75
2018-02-04T07:37:38.204Z,96584.74
2018-02-04T07:40:09.268Z,96583.59
2018-02-04T07:42:38.581Z,96586.15
2018-02-04T07:45:07.986Z,96591.20
2018-02-04T07:47:38.368Z,96596.63
2018-02-04T07:50:11.576Z,96599.98
2018-02-04T07:52:44.934Z,96599.94
2018-02-04T07:55:15.407Z,96600.76
2018-02-04T07:57:47.526Z,96602.05
2018-02-04T08:00:21.464Z,96604.02
2018-02-04T08:02:50.793Z,96603.58
2018-02-04T08:05:21.050Z,96613.19
2018-02-04T08:07:54.553Z,96613.68
2018-02-04T08:10:24.838Z,96615.09
2018-02-04T08:12:53.319Z,96616.06
2018-02-04T08:15:24.500Z,96620.45
2018-02-04T08:17:53.920Z,96616.75
2018-02-04T08:20:23.310Z,96622.58
2018-02-04T08:22:53.821Z,96632.23
2018-02-04T08:25:24.943Z,96635.97
2018-02-04T08:27:54.471Z,96637.28
2018-02-04T08:30:23.138Z,96643.25
2018-02-04T08:32:51.826Z,96642.16
2018-02-04T08:35:23.018Z,96645.20
2018-02-04T08:37:54.131Z,96644.05
2018-02-04T08:40:23.538Z,96639.06
2018-02-04T08:42:52.110Z,96644.88
2018-02-04T08:45:23.344Z,96648.30
2018-02-04T08:47:52.969Z,96653.82
2018-02-04T08:50:24.120Z,96654.58
2018-02-04T08:52:54.436Z,96659.45
2018-02-04T08:55:26.646Z,96658.84
2018-02-04T08:57:56.016Z,96668.52
2018-02-04T09:00:26.110Z,96666.75
2018-02-04T09:02:56.265Z,96669.13
2018-02-04T09:05:24.940Z,96672.27
2018-02-04T09:07:53.534Z,96676.50
2018-02-04T09:10:22.116Z,96676.77
2018-02-04T09:12:53.108Z,96683.80
2018-02-04T09:15:24.580Z,96680.20
2018-02-04T09:17:55.656Z,96691.17
2018-02-04T09:20:25.812Z,96696.59
2018-02-04T09:22:56.040Z,96691.25
2018-02-04T09:25:26.179Z,96695.10
2018-02-04T09:27:54.804Z,96702.37
2018-02-04T09:30:23.382Z,96703.83
2018-02-04T09:32:51.984Z,96711.39
2018-02-04T09:35:23.171Z,96712.35
2018-02-04T09:37:51.714Z,96714.19
2018-02-04T09:40:20.196Z,96718.97
2018-02-04T09:42:51.384Z,96721.23
2018-02-04T09:45:21.604Z,96721.38
2018-02-04T09:47:50.455Z,96726.26
2018-02-04T09:50:18.997Z,96732.81
2018-02-04T09:52:47.946Z,96731.09
2018-02-04T09:55:16.420Z,96730.33
2018-02-04T09:57:46.500Z,96732.20
2018-02-04T10:00:16.810Z,96733.84
2018-02-04T10:02:50.312Z,96735.95
2018-02-04T10:05:18.973Z,96742.49
2018-02-04T10:07:47.746Z,96735.70
2018-02-04T10:10:16.330Z,96738.48
2018-02-04T10:12:46.478Z,96733.34
2018-02-04T10:15:15.146Z,96739.05
2018-02-04T10:17:43.727Z,96737.25
2018-02-04T10:20:12.721Z,96740.89
2018-02-04T10:22:43.153Z,96742.27
2018-02-04T10:25:14.171Z,96738.91
2018-02-04T10:27:46.474Z,96737.34
2018-02-04T10:30:15.066Z,96744.34
2018-02-04T10:32:45.354Z,96742.44
2018-02-04T10:35:17.106Z,96742.84
2018-02-04T10:37:46.580Z,96742.31
2018-02-04T10:40:17.071Z,96747.80
2018-02-04T10:42:49.755Z,96745.25
2018-02-04T10:45:18.447Z,96747.75
2018-02-04T10:47:47.137Z,96751.67
2018-02-04T10:50:16.326Z,96753.13
2018-02-04T10:52:46.616Z,96758.86
2018-02-04T10:55:16.368Z,96757.86
2018-02-04T10:57:47.568Z,96763.34
2018-02-04T11:00:17.342Z,96759.19
2018-02-04T11:02:46.854Z,96753.10
2018-02-04T11:05:15.635Z,96758.78
2018-02-04T11:07:45.838Z,96754.37
2018-02-04T11:10:16.685Z,96759.58
2018-02-04T11:12:45.470Z,96765.59
2018-02-04T11:15:15.204Z,96769.49
2018-02-04T11:17:51.435Z,96766.52
2018-02-04T11:20:23.727Z,96765.56
2018-02-04T11:22:54.010Z,96769.27
2018-02-04T11:25:23.479Z,96769.71
2018-02-04T11:27:52.148Z,96770.58
2018-02-04T11:30:20.736Z,96765.91
2018-02-04T11:32:51.248Z,96768.20
2018-02-04T11:35:19.957Z,96776.17
2018-02-04T11:37:48.540Z,96773.23
2018-02-04T11:40:19.377Z,96772.06
2018-02-04T11:42:47.924Z,96774.14
2018-02-04T11:45:18.152Z,96773.62
2018-02-04T11:47:49.120Z,96773.44
2018-02-04T11:50:19.478Z,96781.99
2018-02-04T11:52:54.885Z,96777.87
2018-02-04T11:55:27.893Z,96778.56
2018-02-04T11:57:59.240Z,96777.47
2018-02-04T12:00:27.823Z,96783.27
2018-02-04T12:02:56.386Z,96784.98
2018-02-04T12:05:26.495Z,96781.13
2018-02-04T12:07:55.112Z,96783.90
2018-02-04T12:10:25.124Z,96786.70
2018-02-04T12:12:55.560Z,96791.91
2018-02-04T12:15:29.553Z,96792.83
2018-02-04T12:17:58.158Z,96799.97
2018-02-04T12:20:28.687Z,96794.04
2018-02-04T12:22:58.014Z,96793.08
2018-02-04T12:25:27.994Z,96793.22
2018-02-04T12:27:56.697Z,96794.70
2018-02-04T12:30:31.949Z,96796.24
2018-02-04T12:33:02.182Z,96790.94
2018-02-04T12:35:34.725Z,96797.92
2018-02-04T12:38:05.045Z,96791.70
2018-02-04T12:40:38.049Z,96795.52
2018-02-04T12:43:06.863Z,96797.52
2018-02-04T12:45:35.449Z,96798.09
2018-02-04T12:48:08.862Z,96800.45
2018-02-04T12:50:39.469Z,96802.70
2018-02-04T12:53:11.834Z,96804.82
2018-02-04T12:55:40.631Z,96807.21
2018-02-04T12:58:09.941Z,96811.14
2018-02-04T13:00:39.358Z,96810.20
2018-02-04T13:03:11.513Z,96812.84
2018-02-04T13:05:43.279Z,96809.78
2018-02-04T13:08:13.532Z,96815.23
2018-02-04T13:10:44.631Z,96811.20
2018-02-04T13:13:13.322Z,96812.33
2018-02-04T13:15:41.802Z,96815.09
2018-02-04T13:18:14.061Z,96815.19
2018-02-04T13:20:42.689Z,96818.91
2018-02-04T13:23:13.866Z,96816.10
2018-02-04T13:25:43.991Z,96820.25
2018-02-04T13:28:15.369Z,96823.41
2018-02-04T13:30:45.588Z,96822.41
2018-02-04T13:33:16.645Z,96825.27
2018-02-04T13:35:46.970Z,96829.67
2018-02-04T13:38:20.552Z,96832.13
2018-02-04T13:40:50.162Z,96824.52
2018-02-04T13:43:18.973Z,96831.09
2018-02-04T13:45:47.557Z,96829.14
2018-02-04T13:48:18.650Z,96828.89
2018-02-04T13:50:47.209Z,96832.39
2018-02-04T13:53:15.731Z,96828.68
2018-02-04T13:55:49.486Z,96841.14
2018-02-04T13:58:20.317Z,96841.00
2018-02-04T14:00:49.646Z,96841.59
2018-02-04T14:03:19.868Z,96846.61
2018-02-04T14:05:49.847Z,96851.77
2018-02-04T14:08:19.510Z,96852.60
2018-02-04T14:10:49.304Z,96857.81
2018-02-04T14:13:18.260Z,96852.08
2018-02-04T14:15:48.705Z,96856.36
2018-02-04T14:18:18.020Z,96861.48
2018-02-04T14:20:53.541Z,96863.94
2018-02-04T14:23:26.053Z,96865.25
2018-02-04T14:25:56.342Z,96868.44
2018-02-04T14:28:29.131Z,96870.81
2018-02-04T14:30:59.286Z,96880.20
2018-02-04T14:33:27.954Z,96881.12
2018-02-04T14:35:57.720Z,96881.02
2018-02-04T14:38:26.355Z,96882.81
2018-02-04T14:40:57.542Z,96889.41
2018-02-04T14:43:26.196Z,96890.38
2018-02-04T14:45:55.284Z,96894.48
2018-02-04T14:48:26.627Z,96903.21
2018-02-04T14:50:57.080Z,96901.23
2018-02-04T14:53:25.772Z,96908.37
2018-02-04T14:55:56.148Z,96905.86
2018-02-04T14:58:28.973Z,96907.78
2018-02-04T15:00:59.120Z,96911.50
2018-02-04T15:03:28.707Z,96910.44
2018-02-04T15:05:57.285Z,96914.30
2018-02-04T15:08:27.583Z,96917.80
2018-02-04T15:10:58.818Z,96915.76
2018-02-04T15:13:30.598Z,96923.23
2018-02-04T15:16:01.182Z,96917.45
2018-02-04T15:18:31.626Z,96921.45
2018-02-04T15:21:04.238Z,96924.61
2018-02-04T15:23:36.858Z,96925.23
2018-02-04T15:26:07.100Z,96927.92
2018-02-04T15:28:40.715Z,96934.17
2018-02-04T15:31:09.945Z,96934.79
2018-02-04T15:33:38.667Z,96938.02
2018-02-04T15:36:08.124Z,96950.14
2018-02-04T15:38:38.571Z,96942.95
2018-02-04T15:41:16.266Z,96945.91
2018-02-04T15:43:44.759Z,96947.24
2018-02-04T15:46:14.919Z,96946.47
2018-02-04T15:48:46.098Z,96948.81
2018-02-04T15:51:14.707Z,96957.86
2018-02-04T15:53:43.301Z,96959.38
2018-02-04T15:56:13.610Z,96956.82
2018-02-04T15:58:46.430Z,96963.61
2018-02-04T16:01:16.602Z,96962.55
2018-02-04T16:03:47.236Z,96971.08
2018-02-04T16:06:17.566Z,96968.78
2018-02-04T16:08:49.387Z,96971.12
2018-02-04T16:11:19.648Z,96978.64
2018-02-04T16:13:51.224Z,96980.30
2018-02-04T16:16:19.695Z,96986.58
2018-02-04T16:18:48.303Z,96980.16
2018-02-04T16:21:18.692Z,96987.09
2018-02-04T16:23:48.245Z,96989.38
2018-02-04T16:26:19.506Z,96995.86
2018-02-04T16:28:50.707Z,96998.12
2018-02-04T16:31:19.432Z,97001.33
2018-02-04T16:33:48.117Z,97000.34
2018-02-04T16:36:19.246Z,97007.72
2018-02-04T16:38:48.794Z,97004.29
2018-02-04T16:41:20.850Z,97014.17
2018-02-04T16:43:50.572Z,97009.45
2018-02-04T16:46:21.305Z,97014.75
2018-02-04T16:48:49.836Z,97017.08
2018-02-04T16:51:18.449Z,97021.46
2018-02-04T16:53:49.019Z,97026.78
2018-02-04T16:56:19.548Z,97028.72
2018-02-04T16:58:51.273Z,97028.63
2018-02-04T17:01:19.959Z,97031.86
2018-02-04T17:03:48.854Z,97037.73
2018-02-04T17:06:19.084Z,97043.06
2018-02-04T17:08:51.441Z,97048.00
2018-02-04T17:11:22.687Z,97060.00
2018-02-04T17:13:55.903Z,97058.57
2018-02-04T17:16:26.240Z,97057.14
2018-02-04T17:18:59.761Z,97056.71
2018-02-04T17:21:30.343Z,97067.37
2018-02-04T17:26:34.234Z,97068.88
2018-02-04T17:29:04.634Z,97074.64
2018-02-04T17:31:37.441Z,97071.08
2018-02-04T17:34:08.010Z,97081.75
2018-02-04T17:36:41.052Z,97080.77
2018-02-04T17:39:21.406Z,97080.27
2018-02-04T17:41:49.987Z,97092.70
2018-02-04T17:44:21.253Z,97092.56
2018-02-04T17:46:50.813Z,97098.81
2018-02-04T17:49:24.807Z,97094.80
2018-02-04T17:51:54.435Z,97104.30
2018-02-04T17:54:25.615Z,97104.90
2018-02-04T17:56:54.371Z,97108.51
2018-02-04T17:59:23.051Z,97137.53
2018-02-04T18:01:51.636Z,97116.06
2018-02-04T18:04:20.219Z,97115.04
2018-02-04T18:06:49.735Z,97116.02
2018-02-04T18:09:20.186Z,97112.16
2018-02-04T18:11:48.946Z,97106.30
2018-02-04T18:14:17.710Z,97107.09
2018-02-04T18:16:48.329Z,97106.47
2018-02-04T18:19:19.022Z,97106.63
2018-02-04T18:21:49.485Z,97116.44
2018-02-04T18:24:20.142Z,97109.17
2018-02-04T18:26:51.916Z,97110.66
2018-02-04T18:29:21.405Z,97113.52
2018-02-04T18:31:51.789Z,97117.70
2018-02-04T18:34:24.586Z,97118.16
2018-02-04T18:36:55.823Z,97119.91
2018-02-04T18:39:26.858Z,97123.52
2018-02-04T18:41:57.509Z,97128.48
2018-02-04T18:44:28.220Z,97127.19
2018-02-04T18:46:59.177Z,97123.44
2018-02-04T18:49:30.582Z,97127.62
2018-02-04T18:51:59.821Z,97132.48
2018-02-04T18:54:31.416Z,97133.22
2018-02-04T18:57:01.735Z,97139.01
2018-02-04T18:59:31.376Z,97132.14
2018-02-04T19:02:10.934Z,97135.39
2018-02-04T19:04:41.428Z,97131.12
2018-02-04T19:07:12.894Z,97133.98
2018-02-04T19:09:43.937Z,97142.89
2018-02-04T19:12:12.597Z,97141.56
2018-02-04T19:37:33.676Z,97164.09
2018-02-04T19:40:02.433Z,97157.72
2018-02-04T19:42:31.293Z,97160.13
2018-02-04T19:45:00.184Z,97163.88
2018-02-04T19:47:29.150Z,97162.19
2018-02-04T19:49:58.005Z,97154.72
2018-02-04T19:52:32.229Z,97153.91
2018-02-04T19:57:43.478Z,97162.83
2018-02-04T20:00:13.290Z,97161.69
2018-02-04T20:02:42.970Z,97163.30
2018-02-04T20:05:16.347Z,97166.58
2018-02-04T20:07:46.799Z,97171.94
2018-02-04T20:10:16.337Z,97176.27
2018-02-04T20:12:46.666Z,97185.06
2018-02-04T20:15:20.441Z,97182.47
2018-02-04T20:17:50.448Z,97177.58
2018-02-04T20:20:19.982Z,97188.41
2018-02-04T20:22:49.632Z,97189.97
2018-02-04T20:25:22.510Z,97200.94
2018-02-04T20:27:53.104Z,97200.02
2018-02-04T20:30:22.692Z,97196.06
2018-02-04T20:33:03.974Z,97205.28
2018-02-04T20:35:32.932Z,97203.22
2018-02-04T20:38:01.799Z,97213.00
2018-02-04T20:40:30.579Z,97216.66
2018-02-04T20:42:59.329Z,97216.03
2018-02-04T20:45:32.485Z,97221.27
2018-02-04T20:48:02.763Z,97221.18
2018-02-04T20:50:33.217Z,97221.02
2018-02-04T20:53:03.636Z,97217.90
2018-02-04T20:55:36.503Z,97224.34
2018-02-04T20:58:05.250Z,97221.45
2018-02-04T21:00:35.790Z,97219.63
2018-02-04T21:03:04.525Z,97217.57
2018-02-04T21:05:35.741Z,97220.88
2018-02-04T21:08:06.084Z,97219.17
2018-02-04T21:10:38.680Z,97218.68
2018-02-04T21:13:10.894Z,97221.61
2018-02-04T21:15:40.868Z,97224.97
2018-02-04T21:18:11.353Z,97228.56
2018-02-04T21:20:41.428Z,97228.50
2018-02-04T21:23:25.152Z,97226.86
2018-02-04T21:25:54.479Z,97229.75
2018-02-04T21:28:23.044Z,97235.88
2018-02-04T21:30:51.840Z,97237.00
2018-02-04T21:33:25.925Z,97237.65
2018-02-04T21:35:59.504Z,97244.95
2018-02-04T21:38:28.269Z,97245.22
2018-02-04T21:40:59.536Z,97240.91
2018-02-04T21:43:32.876Z,97248.30
2018-02-04T21:46:03.639Z,97257.48
2018-02-04T21:48:35.066Z,97254.96
2018-02-04T21:51:03.662Z,97257.48
2018-02-04T21:53:32.854Z,97260.02
2018-02-04T21:56:04.215Z,97259.64
2018-02-04T21:58:32.998Z,97255.06
2018-02-04T22:01:03.652Z,97256.31
2018-02-04T22:03:33.723Z,97260.89
2018-02-04T22:06:05.202Z,97260.05
2018-02-04T22:08:33.799Z,97262.89
2018-02-04T22:11:02.467Z,97267.78
2018-02-04T22:13:32.822Z,97266.05
2018-02-04T22:16:02.216Z,97260.23
2018-02-04T22:18:32.479Z,97267.27
2018-02-04T22:21:05.103Z,97258.50
2018-02-04T22:23:36.713Z,97261.69
2018-02-04T22:26:06.982Z,97261.25
2018-02-04T22:28:39.874Z,97260.24
2018-02-04T22:31:10.094Z,97266.47
2018-02-04T22:33:40.365Z,97263.60
2018-02-04T22:36:11.168Z,97264.41
2018-02-04T22:38:50.060Z,97275.07
2018-02-04T22:41:23.443Z,97276.26
2018-02-04T22:43:53.762Z,97283.72
2018-02-04T22:46:24.715Z,97277.50
2018-02-04T22:48:54.064Z,97281.67
2018-02-04T22:51:23.142Z,97289.92
2018-02-04T22:53:51.597Z,97292.81
2018-02-04T22:56:20.205Z,97288.70
2018-02-04T22:58:50.312Z,97289.78
2018-02-04T23:01:21.395Z,97286.71
2018-02-04T23:03:50.812Z,97290.02
2018-02-04T23:06:21.123Z,97297.02
2018-02-04T23:08:52.200Z,97294.09
2018-02-04T23:11:26.357Z,97301.13
2018-02-04T23:13:57.924Z,97298.64
2018-02-04T23:16:28.197Z,97301.13
2018-02-04T23:18:59.797Z,97301.56
2018-02-04T23:21:29.131Z,97301.83
2018-02-04T23:23:58.424Z,97307.27
2018-02-04T23:26:29.738Z,97301.39
2018-02-04T23:28:58.440Z,97303.88
2018-02-04T23:31:35.256Z,97298.70
2018-02-04T23:34:03.883Z,97295.66
2018-02-04T23:36:33.963Z,97295.95
2018-02-04T23:39:03.460Z,97298.79
2018-02-04T23:41:33.605Z,97292.51
2018-02-04T23:44:03.692Z,97284.52
2018-02-04T23:46:32.871Z,97292.36
2018-02-04T23:49:03.079Z,97291.92
2018-02-04T23:51:34.951Z,97293.44
2018-02-04T23:54:13.122Z,97293.72
2018-02-04T23:56:44.241Z,97291.67
2018-02-04T23:59:14.529Z,97290.05
